RYR1988 EKCH-EGCC
Flight info
| Callsign | RYR1988 |
|---|---|
| Flight time | 1h 37m |
| Altitude | 38000 |
| Route | ODDON DCT LESRA DCT ROPAL DCT TILNI |
| Aircraft | B738/M-SDE2E3FGHIRWXY/LB1 |
Departure
| Time | 2026-05-06 21:54 |
|---|---|
| Airport | Copenhagen Kastrup Airport (EKCH) |
Arrival
| Time | 2026-05-06 23:31 |
|---|---|
| Airport | Manchester Airport (EGCC) |
| Time | Latitude | Longitude | Altitude | Speed | Heading |
|---|---|---|---|---|---|
| 2026-05-06 21:32 | 55.62519 | 12.65574 | 23 ft | 0 kts | 25° |
| 2026-05-06 21:46 | 55.62512 | 12.65567 | 23 ft | 4 kts | 25° |
| 2026-05-06 21:47 | 55.62487 | 12.65549 | 26 ft | 4 kts | 22° |
| 2026-05-06 21:47 | 55.62467 | 12.65533 | 25 ft | 4 kts | 33° |
| 2026-05-06 21:47 | 55.62449 | 12.65501 | 24 ft | 4 kts | 67° |
| 2026-05-06 21:47 | 55.62443 | 12.65460 | 26 ft | 1 kts | 89° |
| 2026-05-06 21:48 | 55.62443 | 12.65451 | 23 ft | 0 kts | 89° |
| 2026-05-06 21:51 | 55.62443 | 12.65512 | 23 ft | 12 kts | 89° |
| 2026-05-06 21:51 | 55.62445 | 12.65721 | 24 ft | 20 kts | 89° |
| 2026-05-06 21:52 | 55.62453 | 12.65971 | 23 ft | 20 kts | 71° |
| 2026-05-06 21:52 | 55.62506 | 12.66177 | 23 ft | 19 kts | 121° |
| 2026-05-06 21:52 | 55.62398 | 12.66120 | 23 ft | 19 kts | 224° |
| 2026-05-06 21:52 | 55.62278 | 12.66116 | 24 ft | 18 kts | 159° |
| 2026-05-06 21:53 | 55.62163 | 12.66098 | 22 ft | 18 kts | 191° |
| 2026-05-06 21:53 | 55.62055 | 12.66001 | 24 ft | 21 kts | 219° |
| 2026-05-06 21:53 | 55.61793 | 12.65598 | 24 ft | 89 kts | 220° |
| 2026-05-06 21:53 | 55.61142 | 12.64597 | 30 ft | 156 kts | 220° |
| 2026-05-06 21:54 | 55.60281 | 12.63206 | 580 ft | 176 kts | 221° |
| 2026-05-06 21:54 | 55.59401 | 12.61623 | 1446 ft | 181 kts | 223° |
| 2026-05-06 21:54 | 55.58530 | 12.60100 | 2081 ft | 176 kts | 217° |
| 2026-05-06 21:54 | 55.57554 | 12.58690 | 2367 ft | 185 kts | 216° |
| 2026-05-06 21:55 | 55.56545 | 12.57256 | 2768 ft | 187 kts | 217° |
| 2026-05-06 21:55 | 55.55834 | 12.55333 | 3095 ft | 195 kts | 261° |
| 2026-05-06 21:55 | 55.55959 | 12.52827 | 3378 ft | 219 kts | 282° |
| 2026-05-06 21:55 | 55.56247 | 12.50066 | 3637 ft | 242 kts | 281° |
| 2026-05-06 21:56 | 55.56538 | 12.47091 | 4223 ft | 248 kts | 281° |
| 2026-05-06 21:56 | 55.56822 | 12.44034 | 4941 ft | 249 kts | 281° |
| 2026-05-06 21:56 | 55.57092 | 12.41042 | 5608 ft | 251 kts | 281° |
| 2026-05-06 21:56 | 55.57361 | 12.37997 | 6284 ft | 252 kts | 281° |
| 2026-05-06 21:57 | 55.57629 | 12.34923 | 6879 ft | 252 kts | 280° |
| 2026-05-06 21:57 | 55.57895 | 12.31850 | 6984 ft | 254 kts | 280° |
| 2026-05-06 21:57 | 55.58086 | 12.28750 | 7033 ft | 255 kts | 275° |
| 2026-05-06 21:57 | 55.58188 | 12.25611 | 7516 ft | 257 kts | 274° |
| 2026-05-06 21:58 | 55.58277 | 12.22460 | 8211 ft | 256 kts | 274° |
| 2026-05-06 21:58 | 55.58365 | 12.19260 | 8646 ft | 270 kts | 274° |
| 2026-05-06 21:58 | 55.58462 | 12.15872 | 9214 ft | 280 kts | 274° |
| 2026-05-06 21:58 | 55.58561 | 12.12436 | 10147 ft | 280 kts | 273° |
| 2026-05-06 21:59 | 55.58665 | 12.08913 | 10653 ft | 298 kts | 273° |
| 2026-05-06 21:59 | 55.58777 | 12.05100 | 10851 ft | 323 kts | 273° |
| 2026-05-06 21:59 | 55.58899 | 12.00988 | 11114 ft | 345 kts | 273° |
| 2026-05-06 21:59 | 55.59027 | 11.96706 | 11744 ft | 352 kts | 273° |
| 2026-05-06 22:00 | 55.59155 | 11.92360 | 12559 ft | 355 kts | 272° |
| 2026-05-06 22:00 | 55.59282 | 11.87991 | 13390 ft | 357 kts | 272° |
| 2026-05-06 22:00 | 55.59409 | 11.83577 | 14133 ft | 361 kts | 272° |
| 2026-05-06 22:00 | 55.59493 | 11.80634 | 14600 ft | 363 kts | 272° |
| 2026-05-06 22:01 | 55.59620 | 11.76162 | 15344 ft | 365 kts | 272° |
| 2026-05-06 22:01 | 55.59745 | 11.71654 | 16073 ft | 368 kts | 272° |
| 2026-05-06 22:01 | 55.59870 | 11.67128 | 16790 ft | 370 kts | 272° |
| 2026-05-06 22:01 | 55.59994 | 11.62557 | 17492 ft | 373 kts | 272° |
| 2026-05-06 22:02 | 55.60117 | 11.57952 | 18201 ft | 376 kts | 272° |
| 2026-05-06 22:02 | 55.60240 | 11.53321 | 18809 ft | 379 kts | 272° |
| 2026-05-06 22:02 | 55.60363 | 11.48649 | 19413 ft | 381 kts | 271° |
| 2026-05-06 22:02 | 55.60483 | 11.43957 | 20011 ft | 383 kts | 271° |
| 2026-05-06 22:03 | 55.60601 | 11.39241 | 20604 ft | 386 kts | 271° |
| 2026-05-06 22:03 | 55.60597 | 11.34486 | 21182 ft | 388 kts | 266° |
| 2026-05-06 22:03 | 55.60447 | 11.29708 | 21752 ft | 390 kts | 265° |
| 2026-05-06 22:03 | 55.60253 | 11.24916 | 22310 ft | 392 kts | 264° |
| 2026-05-06 22:04 | 55.60056 | 11.20090 | 22868 ft | 395 kts | 264° |
| 2026-05-06 22:04 | 55.59869 | 11.15235 | 23417 ft | 397 kts | 264° |
| 2026-05-06 22:04 | 55.59689 | 11.10335 | 23885 ft | 400 kts | 264° |
| 2026-05-06 22:04 | 55.59517 | 11.05425 | 24314 ft | 402 kts | 264° |
| 2026-05-06 22:05 | 55.59347 | 11.00479 | 24741 ft | 404 kts | 264° |
| 2026-05-06 22:05 | 55.59176 | 10.95497 | 25158 ft | 406 kts | 264° |
| 2026-05-06 22:05 | 55.59003 | 10.90496 | 25571 ft | 409 kts | 264° |
| 2026-05-06 22:05 | 55.58830 | 10.85545 | 25961 ft | 411 kts | 264° |
| 2026-05-06 22:06 | 55.58649 | 10.80426 | 26369 ft | 413 kts | 264° |
| 2026-05-06 22:06 | 55.58470 | 10.75415 | 26749 ft | 415 kts | 264° |
| 2026-05-06 22:06 | 55.58285 | 10.70308 | 27129 ft | 417 kts | 264° |
| 2026-05-06 22:06 | 55.58096 | 10.65185 | 27495 ft | 419 kts | 264° |
| 2026-05-06 22:07 | 55.57957 | 10.60024 | 27857 ft | 422 kts | 266° |
| 2026-05-06 22:07 | 55.57885 | 10.54833 | 28207 ft | 424 kts | 266° |
| 2026-05-06 22:07 | 55.57837 | 10.49613 | 28548 ft | 426 kts | 266° |
| 2026-05-06 22:07 | 55.57793 | 10.44365 | 28892 ft | 428 kts | 266° |
| 2026-05-06 22:08 | 55.57743 | 10.39097 | 29215 ft | 430 kts | 266° |
| 2026-05-06 22:08 | 55.57684 | 10.33808 | 29618 ft | 430 kts | 266° |
| 2026-05-06 22:08 | 55.57619 | 10.28549 | 30125 ft | 427 kts | 266° |
| 2026-05-06 22:08 | 55.57547 | 10.23316 | 30559 ft | 425 kts | 266° |
| 2026-05-06 22:09 | 55.57471 | 10.18092 | 30898 ft | 425 kts | 266° |
| 2026-05-06 22:09 | 55.57391 | 10.12867 | 31199 ft | 426 kts | 266° |
| 2026-05-06 22:09 | 55.57308 | 10.07635 | 31565 ft | 425 kts | 266° |
| 2026-05-06 22:09 | 55.57223 | 10.02414 | 31998 ft | 423 kts | 266° |
| 2026-05-06 22:10 | 55.57136 | 9.97228 | 32376 ft | 422 kts | 266° |
| 2026-05-06 22:10 | 55.57047 | 9.92043 | 32671 ft | 422 kts | 266° |
| 2026-05-06 22:10 | 55.56955 | 9.86857 | 32980 ft | 423 kts | 266° |
| 2026-05-06 22:10 | 55.56862 | 9.81666 | 33324 ft | 422 kts | 266° |
| 2026-05-06 22:11 | 55.56767 | 9.76495 | 33675 ft | 421 kts | 266° |
| 2026-05-06 22:11 | 55.56669 | 9.71316 | 33984 ft | 421 kts | 266° |
| 2026-05-06 22:11 | 55.56570 | 9.66147 | 34231 ft | 422 kts | 266° |
| 2026-05-06 22:11 | 55.56468 | 9.60970 | 34471 ft | 422 kts | 266° |
| 2026-05-06 22:12 | 55.56363 | 9.55784 | 34703 ft | 422 kts | 266° |
| 2026-05-06 22:12 | 55.56258 | 9.50660 | 34951 ft | 423 kts | 266° |
| 2026-05-06 22:12 | 55.56150 | 9.45484 | 35252 ft | 421 kts | 266° |
| 2026-05-06 22:12 | 55.56040 | 9.40314 | 35507 ft | 421 kts | 266° |
| 2026-05-06 22:13 | 55.55927 | 9.35139 | 35684 ft | 423 kts | 266° |
| 2026-05-06 22:13 | 55.55812 | 9.29951 | 35885 ft | 423 kts | 266° |
| 2026-05-06 22:13 | 55.55694 | 9.24748 | 36129 ft | 423 kts | 266° |
| 2026-05-06 22:13 | 55.55575 | 9.19555 | 36358 ft | 423 kts | 266° |
| 2026-05-06 22:14 | 55.55453 | 9.14355 | 36556 ft | 424 kts | 266° |
| 2026-05-06 22:14 | 55.55329 | 9.09161 | 36756 ft | 424 kts | 266° |
| 2026-05-06 22:14 | 55.55202 | 9.03941 | 36977 ft | 424 kts | 266° |
| 2026-05-06 22:14 | 55.55073 | 8.98729 | 37189 ft | 425 kts | 266° |
| 2026-05-06 22:15 | 55.54942 | 8.93519 | 37394 ft | 425 kts | 265° |
| 2026-05-06 22:15 | 55.54809 | 8.88306 | 37614 ft | 425 kts | 265° |
| 2026-05-06 22:15 | 55.54673 | 8.83087 | 37814 ft | 425 kts | 265° |
| 2026-05-06 22:15 | 55.54536 | 8.77874 | 37968 ft | 426 kts | 265° |
| 2026-05-06 22:16 | 55.54250 | 8.67364 | 37985 ft | 429 kts | 265° |
| 2026-05-06 22:16 | 55.53958 | 8.56880 | 37986 ft | 425 kts | 265° |
| 2026-05-06 22:17 | 55.53661 | 8.46556 | 37991 ft | 422 kts | 265° |
| 2026-05-06 22:17 | 55.53355 | 8.36227 | 38012 ft | 420 kts | 265° |
| 2026-05-06 22:18 | 55.53041 | 8.25938 | 37997 ft | 419 kts | 265° |
| 2026-05-06 22:18 | 55.52719 | 8.15665 | 38002 ft | 419 kts | 265° |
| 2026-05-06 22:19 | 55.52388 | 8.05387 | 38003 ft | 420 kts | 265° |
| 2026-05-06 22:19 | 55.52048 | 7.95087 | 38001 ft | 421 kts | 265° |
| 2026-05-06 22:20 | 55.51698 | 7.84743 | 38012 ft | 423 kts | 265° |
| 2026-05-06 22:20 | 55.51339 | 7.74407 | 38014 ft | 426 kts | 265° |
| 2026-05-06 22:21 | 55.50967 | 7.63936 | 38019 ft | 428 kts | 265° |
| 2026-05-06 22:21 | 55.50584 | 7.53428 | 38011 ft | 430 kts | 265° |
| 2026-05-06 22:22 | 55.50191 | 7.42889 | 38020 ft | 431 kts | 265° |
| 2026-05-06 22:22 | 55.49789 | 7.32345 | 38025 ft | 431 kts | 265° |
| 2026-05-06 22:23 | 55.49379 | 7.21825 | 38019 ft | 430 kts | 265° |
| 2026-05-06 22:23 | 55.48960 | 7.11317 | 38016 ft | 429 kts | 265° |
| 2026-05-06 22:24 | 55.48533 | 7.00843 | 38014 ft | 428 kts | 265° |
| 2026-05-06 22:24 | 55.48098 | 6.90387 | 38014 ft | 427 kts | 264° |
| 2026-05-06 22:25 | 55.47656 | 6.79971 | 38029 ft | 426 kts | 264° |
| 2026-05-06 22:25 | 55.47205 | 6.69576 | 38020 ft | 425 kts | 264° |
| 2026-05-06 22:26 | 55.46747 | 6.59195 | 38027 ft | 425 kts | 264° |
| 2026-05-06 22:26 | 55.46279 | 6.48809 | 38030 ft | 425 kts | 264° |
| 2026-05-06 22:27 | 55.45801 | 6.38411 | 38041 ft | 426 kts | 264° |
| 2026-05-06 22:27 | 55.45318 | 6.28082 | 38030 ft | 427 kts | 264° |
| 2026-05-06 22:28 | 55.44822 | 6.17661 | 38033 ft | 427 kts | 264° |
| 2026-05-06 22:28 | 55.44316 | 6.07219 | 38034 ft | 428 kts | 264° |
| 2026-05-06 22:29 | 55.43800 | 5.96754 | 38042 ft | 429 kts | 264° |
| 2026-05-06 22:29 | 55.43274 | 5.86273 | 38042 ft | 430 kts | 264° |
| 2026-05-06 22:30 | 55.42737 | 5.75766 | 38048 ft | 431 kts | 264° |
| 2026-05-06 22:30 | 55.42192 | 5.65256 | 38047 ft | 431 kts | 264° |
| 2026-05-06 22:31 | 55.41636 | 5.54735 | 38047 ft | 432 kts | 264° |
| 2026-05-06 22:31 | 55.41073 | 5.44217 | 38048 ft | 432 kts | 264° |
| 2026-05-06 22:32 | 55.40499 | 5.33689 | 38028 ft | 432 kts | 264° |
| 2026-05-06 22:32 | 55.39915 | 5.23175 | 38044 ft | 431 kts | 264° |
| 2026-05-06 22:33 | 55.39326 | 5.12682 | 38045 ft | 431 kts | 264° |
| 2026-05-06 22:33 | 55.38687 | 5.02191 | 38043 ft | 431 kts | 260° |
| 2026-05-06 22:34 | 55.36898 | 4.92181 | 38071 ft | 430 kts | 248° |
| 2026-05-06 22:34 | 55.34595 | 4.82461 | 38052 ft | 430 kts | 248° |
| 2026-05-06 22:35 | 55.32307 | 4.72744 | 38050 ft | 430 kts | 248° |
| 2026-05-06 22:35 | 55.30036 | 4.63024 | 38056 ft | 430 kts | 248° |
| 2026-05-06 22:36 | 55.27763 | 4.53301 | 38064 ft | 430 kts | 248° |
| 2026-05-06 22:36 | 55.25484 | 4.43593 | 38056 ft | 430 kts | 248° |
| 2026-05-06 22:37 | 55.23195 | 4.33887 | 38052 ft | 431 kts | 248° |
| 2026-05-06 22:37 | 55.20914 | 4.24260 | 38065 ft | 431 kts | 248° |
| 2026-05-06 22:38 | 55.18609 | 4.14574 | 38053 ft | 431 kts | 248° |
| 2026-05-06 22:38 | 55.16292 | 4.04877 | 38060 ft | 432 kts | 248° |
| 2026-05-06 22:39 | 55.14044 | 3.95137 | 38050 ft | 432 kts | 253° |
| 2026-05-06 22:39 | 55.12964 | 3.84839 | 38074 ft | 431 kts | 263° |
| 2026-05-06 22:40 | 55.12200 | 3.74438 | 38068 ft | 432 kts | 263° |
| 2026-05-06 22:40 | 55.11406 | 3.64020 | 38068 ft | 433 kts | 262° |
| 2026-05-06 22:41 | 55.10166 | 3.48389 | 38070 ft | 434 kts | 262° |
| 2026-05-06 22:42 | 55.09320 | 3.37959 | 38067 ft | 434 kts | 262° |
| 2026-05-06 22:42 | 55.08463 | 3.27519 | 38070 ft | 434 kts | 262° |
| 2026-05-06 22:43 | 55.07598 | 3.17081 | 38066 ft | 434 kts | 262° |
| 2026-05-06 22:43 | 55.06724 | 3.06650 | 38078 ft | 434 kts | 262° |
| 2026-05-06 22:44 | 55.05848 | 2.96300 | 38081 ft | 434 kts | 262° |
| 2026-05-06 22:44 | 55.04958 | 2.85890 | 38080 ft | 434 kts | 262° |
| 2026-05-06 22:45 | 55.04058 | 2.75481 | 38080 ft | 434 kts | 262° |
| 2026-05-06 22:45 | 55.03151 | 2.65094 | 38072 ft | 433 kts | 262° |
| 2026-05-06 22:46 | 55.02235 | 2.54710 | 38080 ft | 433 kts | 262° |
| 2026-05-06 22:46 | 55.01313 | 2.44355 | 38080 ft | 433 kts | 262° |
| 2026-05-06 22:47 | 55.00381 | 2.34001 | 38071 ft | 432 kts | 262° |
| 2026-05-06 22:47 | 54.99594 | 2.25334 | 38072 ft | 432 kts | 262° |
| 2026-05-06 22:48 | 54.98655 | 2.15073 | 38056 ft | 432 kts | 262° |
| 2026-05-06 22:48 | 54.97694 | 2.04688 | 38070 ft | 431 kts | 262° |
| 2026-05-06 22:49 | 54.96737 | 1.94444 | 38074 ft | 432 kts | 262° |
| 2026-05-06 22:49 | 54.95765 | 1.84141 | 38074 ft | 432 kts | 262° |
| 2026-05-06 22:50 | 54.94784 | 1.73833 | 38071 ft | 432 kts | 261° |
| 2026-05-06 22:50 | 54.93793 | 1.63520 | 38075 ft | 432 kts | 261° |
| 2026-05-06 22:51 | 54.92793 | 1.53204 | 38073 ft | 433 kts | 262° |
| 2026-05-06 22:51 | 54.91783 | 1.42882 | 38072 ft | 433 kts | 261° |
| 2026-05-06 22:52 | 54.90763 | 1.32563 | 38078 ft | 433 kts | 261° |
| 2026-05-06 22:52 | 54.89735 | 1.22247 | 38081 ft | 434 kts | 261° |
| 2026-05-06 22:53 | 54.88696 | 1.11910 | 38073 ft | 434 kts | 261° |
| 2026-05-06 22:53 | 54.87649 | 1.01586 | 38077 ft | 434 kts | 261° |
| 2026-05-06 22:54 | 54.86593 | 0.91275 | 38073 ft | 434 kts | 261° |
| 2026-05-06 22:54 | 54.85527 | 0.80952 | 38073 ft | 434 kts | 261° |
| 2026-05-06 22:55 | 54.84455 | 0.70657 | 38076 ft | 434 kts | 261° |
| 2026-05-06 22:55 | 54.83373 | 0.60364 | 38077 ft | 433 kts | 261° |
| 2026-05-06 22:56 | 54.82284 | 0.50083 | 38072 ft | 433 kts | 261° |
| 2026-05-06 22:56 | 54.81186 | 0.39810 | 38077 ft | 433 kts | 261° |
| 2026-05-06 22:57 | 54.80080 | 0.29550 | 38072 ft | 433 kts | 261° |
| 2026-05-06 22:57 | 54.78974 | 0.19366 | 38073 ft | 433 kts | 261° |
| 2026-05-06 22:58 | 54.77852 | 0.09126 | 38077 ft | 433 kts | 261° |
| 2026-05-06 22:58 | 54.76721 | -0.01112 | 38074 ft | 433 kts | 261° |
| 2026-05-06 22:59 | 54.75582 | -0.11340 | 38074 ft | 433 kts | 261° |
| 2026-05-06 22:59 | 54.74434 | -0.21561 | 38068 ft | 433 kts | 261° |
| 2026-05-06 23:00 | 54.73278 | -0.31778 | 38076 ft | 433 kts | 261° |
| 2026-05-06 23:00 | 54.72111 | -0.42009 | 38077 ft | 434 kts | 260° |
| 2026-05-06 23:01 | 54.70933 | -0.52250 | 38078 ft | 435 kts | 260° |
| 2026-05-06 23:01 | 54.69744 | -0.62512 | 38074 ft | 435 kts | 260° |
| 2026-05-06 23:02 | 54.68540 | -0.72843 | 37508 ft | 442 kts | 261° |
| 2026-05-06 23:02 | 54.67930 | -0.78033 | 36939 ft | 440 kts | 261° |
| 2026-05-06 23:02 | 54.67320 | -0.83198 | 36389 ft | 438 kts | 261° |
| 2026-05-06 23:02 | 54.66707 | -0.88355 | 35779 ft | 438 kts | 261° |
| 2026-05-06 23:03 | 54.66093 | -0.93513 | 35145 ft | 440 kts | 262° |
| 2026-05-06 23:03 | 54.65473 | -0.98702 | 34485 ft | 442 kts | 262° |
| 2026-05-06 23:03 | 54.64851 | -1.03918 | 33747 ft | 445 kts | 263° |
| 2026-05-06 23:03 | 54.64228 | -1.09140 | 33170 ft | 443 kts | 262° |
| 2026-05-06 23:04 | 54.63601 | -1.14323 | 32672 ft | 438 kts | 262° |
| 2026-05-06 23:04 | 54.62976 | -1.19447 | 32204 ft | 434 kts | 262° |
| 2026-05-06 23:04 | 54.62361 | -1.24506 | 31744 ft | 430 kts | 262° |
| 2026-05-06 23:04 | 54.61743 | -1.29535 | 31286 ft | 426 kts | 261° |
| 2026-05-06 23:05 | 54.61133 | -1.34505 | 30843 ft | 422 kts | 261° |
| 2026-05-06 23:05 | 54.60526 | -1.39440 | 30399 ft | 418 kts | 261° |
| 2026-05-06 23:05 | 54.59924 | -1.44318 | 29925 ft | 414 kts | 261° |
| 2026-05-06 23:05 | 54.59327 | -1.49148 | 29423 ft | 410 kts | 261° |
| 2026-05-06 23:06 | 54.58734 | -1.53923 | 28965 ft | 405 kts | 261° |
| 2026-05-06 23:06 | 54.58144 | -1.58650 | 28509 ft | 400 kts | 261° |
| 2026-05-06 23:06 | 54.57561 | -1.63321 | 28067 ft | 396 kts | 261° |
| 2026-05-06 23:06 | 54.56983 | -1.67931 | 27623 ft | 391 kts | 261° |
| 2026-05-06 23:07 | 54.56409 | -1.72487 | 27173 ft | 387 kts | 260° |
| 2026-05-06 23:07 | 54.55828 | -1.76996 | 26737 ft | 384 kts | 257° |
| 2026-05-06 23:07 | 54.54718 | -1.81174 | 26310 ft | 388 kts | 237° |
| 2026-05-06 23:07 | 54.52828 | -1.84500 | 25855 ft | 392 kts | 219° |
| 2026-05-06 23:08 | 54.50432 | -1.86798 | 25346 ft | 399 kts | 202° |
| 2026-05-06 23:08 | 54.47751 | -1.87916 | 24862 ft | 402 kts | 193° |
| 2026-05-06 23:08 | 54.45104 | -1.88720 | 24360 ft | 403 kts | 192° |
| 2026-05-06 23:08 | 54.42331 | -1.89511 | 23848 ft | 403 kts | 192° |
| 2026-05-06 23:09 | 54.39574 | -1.90306 | 23248 ft | 402 kts | 192° |
| 2026-05-06 23:09 | 54.36816 | -1.91129 | 22687 ft | 400 kts | 193° |
| 2026-05-06 23:09 | 54.34095 | -1.91965 | 22168 ft | 392 kts | 193° |
| 2026-05-06 23:09 | 54.31437 | -1.92793 | 21686 ft | 386 kts | 193° |
| 2026-05-06 23:10 | 54.28800 | -1.93618 | 21185 ft | 385 kts | 193° |
| 2026-05-06 23:10 | 54.26174 | -1.94439 | 20690 ft | 382 kts | 193° |
| 2026-05-06 23:10 | 54.23631 | -1.95615 | 20172 ft | 376 kts | 209° |
| 2026-05-06 23:10 | 54.21517 | -1.98119 | 19735 ft | 366 kts | 227° |
| 2026-05-06 23:11 | 54.19944 | -2.01476 | 19288 ft | 361 kts | 237° |
| 2026-05-06 23:11 | 54.18543 | -2.05010 | 18836 ft | 358 kts | 238° |
| 2026-05-06 23:11 | 54.17142 | -2.08517 | 18375 ft | 357 kts | 237° |
| 2026-05-06 23:11 | 54.15731 | -2.11985 | 17852 ft | 355 kts | 236° |
| 2026-05-06 23:12 | 54.14275 | -2.15368 | 17359 ft | 352 kts | 234° |
| 2026-05-06 23:12 | 54.12768 | -2.18639 | 16910 ft | 349 kts | 233° |
| 2026-05-06 23:12 | 54.11259 | -2.21868 | 16428 ft | 347 kts | 233° |
| 2026-05-06 23:12 | 54.09767 | -2.25073 | 15991 ft | 344 kts | 233° |
| 2026-05-06 23:13 | 54.08290 | -2.28265 | 15556 ft | 342 kts | 233° |
| 2026-05-06 23:13 | 54.06831 | -2.31436 | 15115 ft | 339 kts | 233° |
| 2026-05-06 23:13 | 54.05380 | -2.34590 | 14681 ft | 337 kts | 233° |
| 2026-05-06 23:13 | 54.03958 | -2.37677 | 14261 ft | 335 kts | 233° |
| 2026-05-06 23:14 | 54.02394 | -2.40601 | 13808 ft | 335 kts | 218° |
| 2026-05-06 23:14 | 54.00310 | -2.42348 | 13353 ft | 336 kts | 197° |
| 2026-05-06 23:14 | 53.97994 | -2.42807 | 12898 ft | 337 kts | 178° |
| 2026-05-06 23:14 | 53.95671 | -2.42335 | 12465 ft | 336 kts | 173° |
| 2026-05-06 23:15 | 53.93367 | -2.41724 | 12015 ft | 334 kts | 172° |
| 2026-05-06 23:15 | 53.91079 | -2.41094 | 11596 ft | 332 kts | 172° |
| 2026-05-06 23:15 | 53.88802 | -2.40478 | 11174 ft | 330 kts | 173° |
| 2026-05-06 23:15 | 53.86540 | -2.39880 | 10759 ft | 329 kts | 173° |
| 2026-05-06 23:16 | 53.84283 | -2.39297 | 10342 ft | 327 kts | 173° |
| 2026-05-06 23:16 | 53.82045 | -2.38726 | 9960 ft | 321 kts | 173° |
| 2026-05-06 23:16 | 53.79914 | -2.38184 | 9957 ft | 298 kts | 173° |
| 2026-05-06 23:16 | 53.77928 | -2.37683 | 9878 ft | 281 kts | 173° |
| 2026-05-06 23:17 | 53.76023 | -2.37205 | 9516 ft | 274 kts | 174° |
| 2026-05-06 23:17 | 53.74127 | -2.36731 | 9110 ft | 276 kts | 173° |
| 2026-05-06 23:17 | 53.72237 | -2.36259 | 8861 ft | 273 kts | 173° |
| 2026-05-06 23:17 | 53.70365 | -2.35792 | 8584 ft | 271 kts | 173° |
| 2026-05-06 23:18 | 53.68514 | -2.35331 | 8209 ft | 268 kts | 173° |
| 2026-05-06 23:18 | 53.66676 | -2.35007 | 7992 ft | 262 kts | 186° |
| 2026-05-06 23:18 | 53.64915 | -2.35536 | 7826 ft | 254 kts | 195° |
| 2026-05-06 23:18 | 53.63201 | -2.36233 | 7561 ft | 253 kts | 196° |
| 2026-05-06 23:19 | 53.61525 | -2.36919 | 7519 ft | 241 kts | 196° |
| 2026-05-06 23:19 | 53.59944 | -2.37559 | 7435 ft | 227 kts | 195° |
| 2026-05-06 23:19 | 53.58457 | -2.38154 | 7331 ft | 213 kts | 196° |
| 2026-05-06 23:19 | 53.57058 | -2.38730 | 7189 ft | 201 kts | 200° |
| 2026-05-06 23:20 | 53.55796 | -2.39599 | 6915 ft | 197 kts | 206° |
| 2026-05-06 23:20 | 53.54541 | -2.40506 | 6614 ft | 196 kts | 206° |
| 2026-05-06 23:20 | 53.53289 | -2.41401 | 6304 ft | 195 kts | 206° |
| 2026-05-06 23:20 | 53.52067 | -2.42368 | 5994 ft | 193 kts | 213° |
| 2026-05-06 23:21 | 53.50916 | -2.43513 | 5702 ft | 191 kts | 213° |
| 2026-05-06 23:21 | 53.49775 | -2.44641 | 5460 ft | 188 kts | 213° |
| 2026-05-06 23:21 | 53.48660 | -2.45749 | 5252 ft | 187 kts | 213° |
| 2026-05-06 23:21 | 53.47543 | -2.46882 | 5140 ft | 190 kts | 213° |
| 2026-05-06 23:22 | 53.46369 | -2.48072 | 5029 ft | 202 kts | 213° |
| 2026-05-06 23:22 | 53.45150 | -2.49329 | 4893 ft | 207 kts | 212° |
| 2026-05-06 23:22 | 53.43929 | -2.50600 | 4759 ft | 206 kts | 212° |
| 2026-05-06 23:22 | 53.42726 | -2.51857 | 4639 ft | 200 kts | 213° |
| 2026-05-06 23:23 | 53.41572 | -2.53071 | 4530 ft | 192 kts | 213° |
| 2026-05-06 23:23 | 53.40466 | -2.54235 | 4450 ft | 191 kts | 212° |
| 2026-05-06 23:23 | 53.39325 | -2.55444 | 4370 ft | 192 kts | 213° |
| 2026-05-06 23:23 | 53.38183 | -2.56654 | 4263 ft | 195 kts | 213° |
| 2026-05-06 23:24 | 53.37060 | -2.57856 | 4204 ft | 193 kts | 213° |
| 2026-05-06 23:24 | 53.35946 | -2.59060 | 4114 ft | 188 kts | 213° |
| 2026-05-06 23:24 | 53.34861 | -2.60237 | 4060 ft | 186 kts | 213° |
| 2026-05-06 23:24 | 53.33770 | -2.61422 | 4022 ft | 189 kts | 213° |
| 2026-05-06 23:25 | 53.32678 | -2.62612 | 3993 ft | 188 kts | 209° |
| 2026-05-06 23:25 | 53.31427 | -2.62934 | 3935 ft | 188 kts | 163° |
| 2026-05-06 23:25 | 53.30414 | -2.61536 | 3874 ft | 196 kts | 127° |
| 2026-05-06 23:25 | 53.29618 | -2.59687 | 3772 ft | 196 kts | 134° |
| 2026-05-06 23:26 | 53.28643 | -2.58103 | 3667 ft | 193 kts | 140° |
| 2026-05-06 23:26 | 53.27642 | -2.56706 | 3549 ft | 183 kts | 143° |
| 2026-05-06 23:26 | 53.26659 | -2.55432 | 3440 ft | 177 kts | 144° |
| 2026-05-06 23:26 | 53.25662 | -2.54199 | 3365 ft | 180 kts | 144° |
| 2026-05-06 23:27 | 53.24727 | -2.52791 | 3270 ft | 185 kts | 123° |
| 2026-05-06 23:27 | 53.24421 | -2.50732 | 3167 ft | 188 kts | 84° |
| 2026-05-06 23:27 | 53.25019 | -2.48805 | 3082 ft | 193 kts | 50° |
| 2026-05-06 23:27 | 53.25889 | -2.47076 | 2991 ft | 196 kts | 52° |
| 2026-05-06 23:28 | 53.26753 | -2.45295 | 2687 ft | 196 kts | 54° |
| 2026-05-06 23:28 | 53.27594 | -2.43561 | 2428 ft | 193 kts | 53° |
| 2026-05-06 23:28 | 53.28430 | -2.41835 | 2166 ft | 189 kts | 53° |
| 2026-05-06 23:28 | 53.29247 | -2.40153 | 1972 ft | 182 kts | 54° |
| 2026-05-06 23:29 | 53.30028 | -2.38546 | 1893 ft | 169 kts | 54° |
| 2026-05-06 23:29 | 53.30743 | -2.37077 | 1832 ft | 163 kts | 54° |
| 2026-05-06 23:29 | 53.31472 | -2.35574 | 1447 ft | 166 kts | 53° |
| 2026-05-06 23:29 | 53.32196 | -2.34150 | 1224 ft | 151 kts | 52° |
| 2026-05-06 23:30 | 53.32816 | -2.32884 | 1016 ft | 132 kts | 55° |
| 2026-05-06 23:30 | 53.33352 | -2.31683 | 697 ft | 127 kts | 53° |
| 2026-05-06 23:30 | 53.33889 | -2.30565 | 480 ft | 119 kts | 51° |
| 2026-05-06 23:30 | 53.34390 | -2.29520 | 308 ft | 113 kts | 51° |
| 2026-05-06 23:31 | 53.34894 | -2.28488 | 238 ft | 112 kts | 51° |
| 2026-05-06 23:31 | 53.35322 | -2.27600 | 241 ft | 77 kts | 51° |
| 2026-05-06 23:31 | 53.35555 | -2.27122 | 252 ft | 19 kts | 51° |
| 2026-05-06 23:31 | 53.35638 | -2.27104 | 256 ft | 14 kts | 325° |
| 2026-05-06 23:32 | 53.35699 | -2.27187 | 254 ft | 1 kts | 331° |
| 2026-05-06 23:32 | 53.35715 | -2.27195 | 254 ft | 6 kts | 349° |
| 2026-05-06 23:32 | 53.35749 | -2.27176 | 254 ft | 9 kts | 34° |
| 2026-05-06 23:32 | 53.35815 | -2.27040 | 254 ft | 19 kts | 58° |
| 2026-05-06 23:33 | 53.35890 | -2.26858 | 255 ft | 19 kts | 52° |
| 2026-05-06 23:33 | 53.35948 | -2.26737 | 255 ft | 8 kts | 28° |
| 2026-05-06 23:33 | 53.36019 | -2.26765 | 254 ft | 12 kts | 323° |
| 2026-05-06 23:33 | 53.36052 | -2.26822 | 254 ft | 5 kts | 313° |
| 2026-05-06 23:34 | 53.36060 | -2.26837 | 254 ft | 2 kts | 313° |
| 2026-05-06 23:34 | 53.36061 | -2.26838 | 254 ft | 0 kts | 313° |